Terminal Aerodrome Forecast
Issued by NWS

Home | Current Version | Previous Version | Text Only | Print | Product List | Glossary On
Versions: 1 2 3 4 5 6 7 8 9 10 11 12
000
FTUS42 TJSJ 031148
TAFJPS
TAF
TJPS 031148Z 0312/0412 VRB04KT P6SM FEW050
     FM031350 14012KT P6SM FEW030
     FM032250 VRB04KT P6SM SKC
      AMD NOT SKED TIL 040300=

USA.gov is the U.S. government's official web portal to all federal, state and local government web resources and services.